Time;durP1;ratioP1;P1;durP2;ratioP2;P2;SDS_P1;SDS_P2;PMS_P1;PMS_P2;Temp;Humidity;BMP_temperature;BMP_pressure;BME280_temperature;BME280_humidity;BME280_pressure;Samples;Min_cycle;Max_cycle;Signal;HPM_P1;HPM_P2
2021/01/13 00:02:51;;;;;;;1999.90;999.90;;;;;;;2.64;76.13;100305.06;15831548;28;20493;-58
2021/01/13 00:10:25;;;;;;;;;;;;;;;2.80;75.40;100298.28;15845848;28;20070;-57
2021/01/13 00:17:58;;;;;;;1999.90;999.90;;;;;;;2.53;76.46;100309.84;15824093;28;19973;-56
2021/01/13 00:25:31;;;;;;;1999.90;999.90;;;;;;;2.77;75.38;100317.31;15804451;28;20058;-54
2021/01/13 00:33:07;;;;;;;1999.90;999.90;;;;;;;2.68;75.71;100313.56;15839871;28;20103;-54
2021/01/13 00:40:40;;;;;;;1999.90;999.90;;;;;;;2.53;76.32;100314.53;15826016;28;20043;-56
2021/01/13 00:48:13;;;;;;;1999.90;999.90;;;;;;;2.56;75.76;100328.53;15824616;28;20039;-53
2021/01/13 00:55:47;;;;;;;1999.90;999.90;;;;;;;2.62;75.55;100321.06;15805105;28;20047;-55
2021/01/13 01:03:19;;;;;;;;;;;;;;;2.86;74.95;100335.69;15822251;28;20067;-57
2021/01/13 01:10:55;;;;;;;1999.90;999.90;;;;;;;2.93;74.86;100334.53;15807120;28;20281;-57
2021/01/13 01:18:27;;;;;;;1999.90;999.90;;;;;;;2.86;74.97;100341.22;15822921;28;20085;-56
2021/01/13 01:26:01;;;;;;;1999.90;999.90;;;;;;;2.73;75.96;100360.38;15783602;28;20405;-53
2021/01/13 01:33:34;;;;;;;1999.90;999.90;;;;;;;2.77;76.31;100369.69;15840848;28;20136;-54
2021/01/13 01:41:09;;;;;;;1999.90;999.90;;;;;;;3.05;75.54;100376.31;15819750;28;20036;-53
2021/01/13 01:48:51;;;;;;;1999.90;999.90;;;;;;;3.14;75.52;100377.31;15802376;28;20044;-53
2021/01/13 01:56:26;;;;;;;1999.90;999.90;;;;;;;3.15;75.25;100385.31;15801302;28;20043;-57
2021/01/13 02:04:06;;;;;;;1999.90;999.90;;;;;;;3.40;73.89;100375.91;15819788;28;20044;-56
2021/01/13 02:11:51;;;;;;;1999.90;999.90;;;;;;;3.45;74.38;100391.59;15837271;28;20044;-54
2021/01/13 02:19:52;;;;;;;1999.90;999.90;;;;;;;3.57;73.70;100392.00;15848497;28;20097;-55
2021/01/13 02:27:54;;;;;;;1999.90;999.90;;;;;;;3.74;72.95;100403.34;15848217;28;20401;-56
2021/01/13 02:35:28;;;;;;;1999.90;999.90;;;;;;;3.66;73.29;100384.72;15829932;28;20069;-53
2021/01/13 02:43:07;;;;;;;1999.90;999.90;;;;;;;3.62;73.31;100394.69;15827035;28;20259;-54
2021/01/13 02:50:45;;;;;;;1999.90;999.90;;;;;;;3.75;73.02;100401.41;15828097;28;20048;-54
2021/01/13 02:58:25;;;;;;;1999.90;999.90;;;;;;;3.59;73.73;100394.47;15826983;28;20046;-55
2021/01/13 03:06:04;;;;;;;1999.90;999.90;;;;;;;3.33;74.37;100394.75;15826076;28;20059;-53
2021/01/13 03:13:44;;;;;;;1999.90;999.90;;;;;;;3.75;73.02;100382.09;15786677;28;20058;-57
2021/01/13 03:21:19;;;;;;;1999.90;999.90;;;;;;;3.50;73.65;100388.75;15804739;28;20400;-56
2021/01/13 03:28:55;;;;;;;1999.90;999.90;;;;;;;3.48;74.21;100402.03;15804071;28;20044;-56
2021/01/13 03:36:39;;;;;;;1999.90;999.90;;;;;;;3.24;74.84;100398.47;15804760;28;20048;-52
2021/01/13 03:44:14;;;;;;;;;;;;;;;3.79;73.13;100396.16;15802164;28;20055;-56
2021/01/13 03:52:01;;;;;;;1999.90;999.90;;;;;;;3.35;74.70;100377.94;15784931;28;19920;-53
2021/01/13 03:59:58;;;;;;;1999.90;999.90;;;;;;;3.57;74.10;100391.19;15784872;28;20044;-52
2021/01/13 04:07:37;;;;;;;1999.90;999.90;;;;;;;3.60;74.18;100391.41;15801724;28;20050;-54
2021/01/13 04:15:12;;;;;;;1999.90;999.90;;;;;;;3.65;73.68;100399.63;15783890;28;20051;-57
2021/01/13 04:22:48;;;;;;;1999.90;999.90;;;;;;;3.29;75.06;100406.66;15800454;28;20442;-56
2021/01/13 04:30:25;;;;;;;1999.90;999.90;;;;;;;3.29;74.46;100392.88;15802436;28;20392;-56
2021/01/13 04:37:59;;;;;;;1999.90;999.90;;;;;;;3.38;74.25;100410.44;15840689;28;20146;-54
2021/01/13 04:45:38;;;;;;;1999.90;999.90;;;;;;;3.24;74.54;100388.25;15819615;28;20058;-57
2021/01/13 04:53:12;;;;;;;1999.90;999.90;;;;;;;3.33;73.96;100397.50;15820380;28;20040;-56
2021/01/13 05:01:07;;;;;;;1999.90;999.90;;;;;;;3.41;73.42;100405.13;15822078;28;20040;-58
2021/01/13 05:08:41;;;;;;;1999.90;999.90;;;;;;;3.36;73.78;100391.41;15827044;28;20054;-56
2021/01/13 05:16:15;;;;;;;1999.90;999.90;;;;;;;3.29;73.45;100390.94;15821544;28;20651;-54
2021/01/13 05:23:50;;;;;;;1999.90;999.90;;;;;;;3.04;73.97;100383.75;15840012;28;20044;-54
2021/01/13 05:31:25;;;;;;;1999.90;999.90;;;;;;;3.20;73.48;100381.66;15824418;28;20044;-56
2021/01/13 05:39:05;;;;;;;1999.90;999.90;;;;;;;3.17;73.71;100366.53;15827718;28;20123;-52
2021/01/13 05:46:44;;;;;;;1999.90;999.90;;;;;;;3.21;73.72;100382.47;15817792;28;20483;-55
2021/01/13 05:54:18;;;;;;;1999.90;999.90;;;;;;;3.32;73.24;100379.31;15838560;28;20043;-53
2021/01/13 06:01:56;;;;;;;;;;;;;;;3.34;73.62;100368.84;15824192;28;20122;-54
2021/01/13 06:09:37;;;;;;;1999.90;999.90;;;;;;;3.14;74.21;100383.66;15839039;28;19944;-56
2021/01/13 06:17:19;;;;;;;1999.90;999.90;;;;;;;3.69;72.34;100392.41;15853894;28;20130;-52
2021/01/13 06:24:58;;;;;;;1999.90;999.90;;;;;;;3.63;73.08;100409.31;15826246;28;20043;-52
2021/01/13 06:32:34;;;;;;;1999.90;999.90;;;;;;;3.72;72.81;100410.28;15834029;28;20036;-53
2021/01/13 06:40:13;;;;;;;1999.90;999.90;;;;;;;3.51;72.87;100406.97;15816541;28;20051;-53
2021/01/13 06:47:55;;;;;;;1999.90;999.90;;;;;;;3.57;72.69;100396.69;15790141;28;20032;-52
2021/01/13 06:55:32;;;;;;;1999.90;999.90;;;;;;;3.57;73.28;100391.19;15806681;28;20051;-52
2021/01/13 07:03:25;;;;;;;1999.90;999.90;;;;;;;3.18;74.50;100403.19;15806620;28;20162;-53
2021/01/13 07:11:02;;;;;;;1999.90;999.90;;;;;;;4.03;72.24;100410.72;15806329;28;20124;-56
2021/01/13 07:18:36;;;;;;;1999.90;999.90;;;;;;;3.68;72.64;100406.50;15804794;28;20048;-53
2021/01/13 07:26:09;;;;;;;1999.90;999.90;;;;;;;3.92;72.06;100415.56;15788108;28;20044;-56
2021/01/13 07:33:47;;;;;;;1999.90;999.90;;;;;;;3.93;71.89;100406.16;15805107;28;20473;-56
2021/01/13 07:41:51;;;;;;;1999.90;999.90;;;;;;;3.90;72.60;100409.53;15803959;28;20127;-59
2021/01/13 07:49:41;;;;;;;1999.90;999.90;;;;;;;4.34;71.03;100402.81;15803725;28;20111;-59
2021/01/13 07:57:22;;;;;;;1999.90;999.90;;;;;;;4.28;70.75;100409.56;15784522;28;20488;-59
2021/01/13 08:06:21;;;;;;;1999.90;999.90;;;;;;;3.94;72.23;100409.75;15784696;28;20036;-58
2021/01/13 08:14:14;;;;;;;1999.90;999.90;;;;;;;3.97;72.06;100410.00;15801285;28;20505;-59
2021/01/13 08:21:54;;;;;;;1999.90;999.90;;;;;;;3.88;72.35;100413.69;15801533;28;20158;-59
2021/01/13 08:29:34;;;;;;;1999.90;999.90;;;;;;;4.15;72.09;100411.09;15800632;28;20126;-59
2021/01/13 08:37:08;;;;;;;1999.90;999.90;;;;;;;4.03;72.25;100408.78;15800328;28;20051;-56
2021/01/13 08:44:42;;;;;;;1999.90;999.90;;;;;;;4.24;71.48;100406.56;15782687;28;20040;-55
2021/01/13 08:52:18;;;;;;;1999.90;999.90;;;;;;;4.33;70.77;100402.00;15800121;28;20477;-57
2021/01/13 08:59:52;;;;;;;1999.90;999.90;;;;;;;4.35;70.54;100408.03;15799784;28;20050;-55
2021/01/13 09:07:27;;;;;;;1999.90;999.90;;;;;;;4.72;70.01;100411.91;15781536;28;20040;-56
2021/01/13 09:15:25;;;;;;;1999.90;999.90;;;;;;;4.49;69.81;100412.84;15832168;27;20146;-59
2021/01/13 09:23:01;;;;;;;1999.90;999.90;;;;;;;4.50;70.57;100418.06;15797060;28;20466;-57
2021/01/13 09:30:36;;;;;;;1999.90;999.90;;;;;;;4.33;70.76;100415.00;15797611;28;20468;-60
2021/01/13 09:38:12;;;;;;;1999.90;999.90;;;;;;;4.84;68.94;100422.50;15853484;28;20485;-59
2021/01/13 09:45:45;;;;;;;1999.90;999.90;;;;;;;5.06;68.78;100416.31;15873587;28;20050;-57
2021/01/13 09:53:28;;;;;;;1999.90;999.90;;;;;;;5.18;68.31;100417.47;15854792;28;20068;-57
2021/01/13 10:01:08;;;;;;;1999.90;999.90;;;;;;;5.24;68.31;100395.25;15867718;27;20093;-56
2021/01/13 10:08:42;;;;;;;1999.90;999.90;;;;;;;5.15;68.87;100395.94;15870360;28;20047;-58
2021/01/13 10:16:16;;;;;;;1999.90;999.90;;;;;;;5.24;68.26;100386.97;15868769;28;20130;-59
2021/01/13 10:23:51;;;;;;;1999.90;999.90;;;;;;;4.88;69.84;100390.34;15869724;28;20119;-58
2021/01/13 10:31:24;;;;;;;1999.90;999.90;;;;;;;5.21;69.25;100375.38;15851324;28;20491;-59
2021/01/13 10:38:58;;;;;;;1999.90;999.90;;;;;;;5.09;68.77;100357.63;15867871;28;20586;-60
2021/01/13 10:46:48;;;;;;;;;;;;;;;4.98;68.74;100351.47;15868014;28;20051;-60
2021/01/13 10:54:24;;;;;;;1999.90;999.90;;;;;;;5.23;68.54;100352.94;15907049;27;19919;-59
2021/01/13 11:02:04;;;;;;;1999.90;999.90;;;;;;;4.91;69.06;100351.88;15858927;28;20384;-59
2021/01/13 11:09:39;;;;;;;1999.90;999.90;;;;;;;5.30;67.38;100327.63;15867018;28;20464;-59
2021/01/13 11:17:14;;;;;;;1999.90;999.90;;;;;;;5.55;67.05;100318.00;15834318;28;20044;-58
2021/01/13 11:24:49;;;;;;;1999.90;999.90;;;;;;;5.71;66.18;100313.75;15802680;28;20044;-58
2021/01/13 11:32:25;;;;;;;1999.90;999.90;;;;;;;5.29;67.36;100299.13;15802254;28;20051;-59
2021/01/13 11:40:09;;;;;;;1999.90;999.90;;;;;;;5.16;67.50;100283.38;15837171;28;20388;-57
2021/01/13 11:47:49;;;;;;;1999.90;999.90;;;;;;;5.22;68.09;100273.84;15863714;28;20511;-57
2021/01/13 11:55:28;;;;;;;1999.90;999.90;;;;;;;5.43;67.43;100260.41;15902584;27;20142;-62
2021/01/13 12:03:01;;;;;;;1999.90;999.90;;;;;;;5.13;67.39;100257.16;15909576;27;20047;-60
2021/01/13 12:10:37;;;;;;;1999.90;999.90;;;;;;;5.62;67.08;100247.22;15908671;27;20038;-58
2021/01/13 12:18:12;;;;;;;1999.90;999.90;;;;;;;5.28;67.55;100233.88;15927096;27;20104;-55
2021/01/13 12:25:46;;;;;;;1999.90;999.90;;;;;;;5.62;66.91;100219.53;15916414;27;20051;-59
2021/01/13 12:33:19;;;;;;;1999.90;999.90;;;;;;;5.37;67.32;100220.13;15845924;28;20048;-58
2021/01/13 12:41:02;;;;;;;;;;;;;;;5.38;67.77;100203.22;15860351;28;20066;-55
2021/01/13 12:48:35;;;;;;;1999.90;999.90;;;;;;;6.06;65.67;100199.44;15824865;27;19928;-57
2021/01/13 12:56:19;;;;;;;1999.90;999.90;;;;;;;6.92;63.12;100204.59;15809524;28;20060;-58
2021/01/13 13:03:53;;;;;;;1999.90;999.90;;;;;;;5.87;66.12;100187.69;15798325;28;20406;-58
2021/01/13 13:11:27;;;;;;;1999.90;999.90;;;;;;;6.07;65.39;100167.00;15794557;28;20469;-57
2021/01/13 13:19:00;;;;;;;1999.90;999.90;;;;;;;5.97;64.79;100170.84;15795093;28;20101;-58
2021/01/13 13:26:35;;;;;;;1999.90;999.90;;;;;;;6.02;65.42;100162.41;15811052;28;20039;-57
2021/01/13 13:34:06;;;;;;;1999.90;999.90;;;;;;;5.72;65.65;100154.81;15818685;28;20121;-58
2021/01/13 13:41:46;;;;;;;1999.90;999.90;;;;;;;5.91;65.46;100152.72;15856293;28;20052;-62
2021/01/13 13:49:21;;;;;;;1999.90;999.90;;;;;;;5.75;65.12;100127.34;15858862;28;20043;-58
2021/01/13 13:56:56;;;;;;;1999.90;999.90;;;;;;;5.84;65.31;100118.28;15837653;28;20051;-58
2021/01/13 14:04:30;;;;;;;1999.90;999.90;;;;;;;6.02;65.61;100112.53;15840175;28;20047;-59
2021/01/13 14:12:07;;;;;;;1999.90;999.90;;;;;;;5.67;66.28;100100.41;15815082;28;20076;-58
2021/01/13 14:19:38;;;;;;;;;;;;;;;5.82;65.71;100087.31;15835374;28;20060;-61
2021/01/13 14:27:28;;;;;;;1999.90;999.90;;;;;;;5.74;65.87;100075.88;15808073;28;20024;-60
2021/01/13 14:35:01;;;;;;;1999.90;999.90;;;;;;;5.77;66.42;100072.47;15829405;28;20070;-60
2021/01/13 14:42:33;;;;;;;1999.90;999.90;;;;;;;5.85;66.94;100050.69;15803152;28;20047;-58
2021/01/13 14:50:07;;;;;;;1999.90;999.90;;;;;;;5.68;66.75;100040.34;15817136;28;20425;-59
2021/01/13 14:57:39;;;;;;;1999.90;999.90;;;;;;;5.88;66.22;100009.34;15845796;28;20100;-60
2021/01/13 15:05:11;;;;;;;1999.90;999.90;;;;;;;5.55;66.45;100002.50;15866489;28;20047;-58
2021/01/13 15:12:44;;;;;;;1999.90;999.90;;;;;;;5.83;64.94;99984.53;15867123;28;20093;-58
2021/01/13 15:20:16;;;;;;;1999.90;999.90;;;;;;;5.72;65.87;99966.59;15852178;27;20157;-56
2021/01/13 15:27:49;;;;;;;1999.90;999.90;;;;;;;5.93;64.32;99947.47;15879617;27;20107;-60
2021/01/13 15:35:21;;;;;;;1999.90;999.90;;;;;;;5.83;64.70;99954.09;15865240;28;20039;-59
2021/01/13 15:42:54;;;;;;;1999.90;999.90;;;;;;;6.00;64.69;99917.38;15843953;28;20035;-58
2021/01/13 15:50:26;;;;;;;1999.90;999.90;;;;;;;5.77;64.45;99891.72;15856314;28;20230;-59
2021/01/13 15:58:03;;;;;;;1999.90;999.90;;;;;;;5.71;65.06;99870.84;15845092;28;20089;-59
2021/01/13 16:05:35;;;;;;;1999.90;999.90;;;;;;;5.54;66.02;99849.47;15828856;28;20271;-59
2021/01/13 16:13:07;;;;;;;1999.90;999.90;;;;;;;5.51;67.04;99841.78;15865341;28;20043;-60
2021/01/13 16:20:42;;;;;;;1999.90;999.90;;;;;;;5.17;68.75;99823.13;15864140;28;20048;-60
2021/01/13 16:28:15;;;;;;;1999.90;999.90;;;;;;;5.32;69.53;99788.69;15863963;28;20492;-58
2021/01/13 16:35:48;;;;;;;1999.90;999.90;;;;;;;5.25;69.29;99768.97;15845132;28;20465;-59
2021/01/13 16:43:21;;;;;;;1999.90;999.90;;;;;;;4.86;70.46;99743.78;15863830;28;20498;-59
2021/01/13 16:50:52;;;;;;;1999.90;999.90;;;;;;;5.21;70.27;99732.88;15863149;28;20039;-59
2021/01/13 16:58:25;;;;;;;1999.90;999.90;;;;;;;4.91;70.87;99764.97;15862511;28;20044;-59
2021/01/13 17:05:58;;;;;;;1999.90;999.90;;;;;;;2.79;77.46;99888.03;15862354;28;20071;-60
2021/01/13 17:13:32;;;;;;;1999.90;999.90;;;;;;;2.47;79.92;99844.78;15844001;28;20044;-61
2021/01/13 17:21:04;;;;;;;1999.90;999.90;;;;;;;2.37;80.36;99807.22;15843048;28;20040;-62
2021/01/13 17:28:39;;;;;;;1999.90;999.90;;;;;;;2.44;80.36;99784.81;15843122;28;20074;-60
2021/01/13 17:36:12;;;;;;;1999.90;999.90;;;;;;;2.37;80.54;99790.69;15842964;28;20123;-63
2021/01/13 17:43:45;;;;;;;1999.90;999.90;;;;;;;2.54;80.12;99779.13;15843051;28;20062;-62
2021/01/13 17:51:18;;;;;;;1999.90;999.90;;;;;;;2.47;79.93;99765.72;15851622;28;20046;-61
2021/01/13 17:58:51;;;;;;;1999.90;999.90;;;;;;;2.58;79.01;99767.19;15853281;28;20092;-62
2021/01/13 18:06:23;;;;;;;1999.90;999.90;;;;;;;2.53;79.04;99775.53;15838282;28;20059;-61
2021/01/13 18:13:56;;;;;;;1999.90;999.90;;;;;;;3.38;76.19;99774.16;15835334;28;20055;-61
2021/01/13 18:21:29;;;;;;;1999.90;999.90;;;;;;;4.53;73.22;99781.16;15816249;28;20040;-63
2021/01/13 18:29:01;;;;;;;1999.90;999.90;;;;;;;2.93;75.94;99777.88;15828356;28;20206;-61
2021/01/13 18:36:34;;;;;;;1999.90;999.90;;;;;;;2.72;77.57;99761.72;15835594;28;20149;-64
2021/01/13 18:44:07;;;;;;;1999.90;999.90;;;;;;;2.76;77.52;99764.66;15830229;28;20442;-62
2021/01/13 18:51:43;;;;;;;1999.90;999.90;;;;;;;2.84;77.51;99756.53;15808566;28;20294;-62
2021/01/13 18:59:16;;;;;;;1999.90;999.90;;;;;;;2.53;78.38;99749.94;15810338;28;20052;-63
2021/01/13 19:06:48;;;;;;;1999.90;999.90;;;;;;;2.58;78.02;99764.44;15831025;28;20048;-65
2021/01/13 19:14:20;;;;;;;1999.90;999.90;;;;;;;2.97;77.23;99765.91;15787825;28;20466;-63
2021/01/13 19:21:52;;;;;;;1999.90;999.90;;;;;;;2.84;77.65;99783.25;15854104;22;20044;-62
2021/01/13 19:29:25;;;;;;;1999.90;999.90;;;;;;;2.78;77.90;99788.03;15807593;28;20050;-64
2021/01/13 19:36:57;;;;;;;1999.90;999.90;;;;;;;2.74;77.76;99795.28;15784967;28;20400;-61
2021/01/13 19:44:30;;;;;;;1999.90;999.90;;;;;;;2.94;77.36;99801.53;15746984;28;20377;-65
2021/01/13 19:52:02;;;;;;;1999.90;999.90;;;;;;;2.48;78.09;99791.31;15734754;28;20510;-64
2021/01/13 19:59:34;;;;;;;1999.90;999.90;;;;;;;3.07;76.75;99803.47;15800513;28;20063;-64
2021/01/13 20:07:06;;;;;;;1999.90;999.90;;;;;;;2.97;77.02;99817.47;15765752;28;20066;-66
2021/01/13 20:14:38;;;;;;;1999.90;999.90;;;;;;;2.73;77.09;99810.19;15755888;28;20040;-67
2021/01/13 20:22:11;;;;;;;1999.90;999.90;;;;;;;2.71;76.86;99820.69;15750430;28;20558;-65
2021/01/13 20:29:44;;;;;;;1999.90;999.90;;;;;;;3.08;75.64;99816.94;15745809;28;20049;-63
2021/01/13 20:37:16;;;;;;;1999.90;999.90;;;;;;;2.86;75.60;99827.84;15801275;28;20042;-65
2021/01/13 20:44:48;;;;;;;1999.90;999.90;;;;;;;2.90;74.94;99818.66;15773427;28;20106;-66
2021/01/13 20:52:20;;;;;;;1999.90;999.90;;;;;;;2.57;74.50;99828.91;15779231;28;20150;-67
2021/01/13 20:59:53;;;;;;;1999.90;999.90;;;;;;;2.76;74.39;99828.84;15779641;28;20047;-64
2021/01/13 21:07:25;;;;;;;1999.90;999.90;;;;;;;2.55;72.69;99833.88;15782075;28;20036;-63
2021/01/13 21:14:57;;;;;;;1999.90;999.90;;;;;;;2.72;73.38;99836.09;15769408;28;20051;-64
2021/01/13 21:22:29;;;;;;;1999.90;999.90;;;;;;;2.34;74.43;99834.53;15769268;28;20045;-64
2021/01/13 21:30:03;;;;;;;1999.90;999.90;;;;;;;2.45;74.53;99836.81;15784867;28;20508;-64
2021/01/13 21:37:37;;;;;;;1999.90;999.90;;;;;;;2.94;73.38;99842.88;15796467;28;20048;-64
2021/01/13 21:45:11;;;;;;;1999.90;999.90;;;;;;;2.83;74.31;99833.97;15776422;28;20155;-63
2021/01/13 21:52:43;;;;;;;1999.90;999.90;;;;;;;2.50;74.49;99822.13;15801815;28;20456;-63
2021/01/13 22:00:16;;;;;;;1999.90;999.90;;;;;;;2.48;73.87;99814.16;15768693;28;20504;-63
2021/01/13 22:07:49;;;;;;;1999.90;999.90;;;;;;;2.19;74.06;99813.53;15816755;28;20040;-64
2021/01/13 22:15:23;;;;;;;1999.90;999.90;;;;;;;2.19;73.17;99819.06;15789497;28;20080;-63
2021/01/13 22:22:55;;;;;;;1999.90;999.90;;;;;;;2.26;72.13;99816.75;15746905;28;20067;-63
2021/01/13 22:30:27;;;;;;;1999.90;999.90;;;;;;;2.22;72.29;99821.22;15747713;28;20126;-62
2021/01/13 22:37:59;;;;;;;1999.90;999.90;;;;;;;2.27;71.25;99823.88;15768290;28;20098;-62
2021/01/13 22:45:31;;;;;;;1999.90;999.90;;;;;;;2.18;71.87;99825.69;15765812;28;20048;-62
2021/01/13 22:53:03;;;;;;;1999.90;999.90;;;;;;;2.14;70.30;99825.47;15773850;28;20052;-63
2021/01/13 23:00:35;;;;;;;1999.90;999.90;;;;;;;1.92;70.77;99834.31;15787221;28;20083;-63
2021/01/13 23:08:07;;;;;;;1999.90;999.90;;;;;;;1.88;70.04;99830.53;15775824;28;20147;-63
2021/01/13 23:15:40;;;;;;;1999.90;999.90;;;;;;;2.00;70.54;99806.16;15756538;28;20064;-62
2021/01/13 23:23:11;;;;;;;1999.90;999.90;;;;;;;1.97;70.19;99800.41;15782693;28;20489;-63
2021/01/13 23:30:45;;;;;;;1999.90;999.90;;;;;;;2.03;70.65;99800.03;15770287;28;20048;-63
2021/01/13 23:38:20;;;;;;;1999.90;999.90;;;;;;;2.23;70.77;99801.66;15806979;28;20120;-61
2021/01/13 23:45:57;;;;;;;1999.90;999.90;;;;;;;2.22;71.08;99793.69;15778439;28;20048;-63
2021/01/13 23:53:29;;;;;;;1999.90;999.90;;;;;;;2.18;71.24;99789.91;15777491;28;20043;-63
